Time;durP1;ratioP1;P1;durP2;ratioP2;P2;SDS_P1;SDS_P2;PMS_P1;PMS_P2;Temp;Humidity;BMP_temperature;BMP_pressure;BME280_temperature;BME280_humidity;BME280_pressure;Samples;Min_cycle;Max_cycle;Signal;HPM_P1;HPM_P2
2022/07/30 00:00:46;;;;;;;2.45;0.90;;;;;;;17.88;48.51;101111.98;1631097;87;21091;-74
2022/07/30 00:03:13;;;;;;;4.83;1.00;;;;;;;17.87;48.64;101095.89;1637839;85;21094;-74
2022/07/30 00:05:39;;;;;;;4.28;0.95;;;;;;;17.84;48.70;101089.47;1639380;85;21125;-74
2022/07/30 00:08:06;;;;;;;5.72;1.00;;;;;;;17.79;48.89;101087.03;1637452;85;21142;-74
2022/07/30 00:10:32;;;;;;;2.47;0.90;;;;;;;17.75;48.98;101087.20;1638523;87;21086;-74
2022/07/30 00:12:58;;;;;;;3.35;1.07;;;;;;;17.74;49.09;101099.42;1637082;86;21314;-74
2022/07/30 00:15:28;;;;;;;2.08;0.80;;;;;;;17.72;49.12;101096.47;1639065;85;21095;-74
2022/07/30 00:17:54;;;;;;;2.08;1.30;;;;;;;17.68;49.29;101093.12;1620691;87;21630;-74
2022/07/30 00:20:21;;;;;;;3.08;1.07;;;;;;;17.66;49.43;101098.89;1639143;87;22236;-74
2022/07/30 00:22:47;;;;;;;;;;;;;;;17.63;49.52;101092.89;1641781;85;21544;-74
2022/07/30 00:25:14;;;;;;;2.12;1.00;;;;;;;17.59;49.96;101092.16;1639412;87;20538;-74
2022/07/30 00:27:40;;;;;;;2.42;1.00;;;;;;;17.58;49.68;101088.29;1639081;86;22139;-74
2022/07/30 00:30:08;;;;;;;3.02;0.93;;;;;;;17.56;49.80;101084.87;1639423;87;21515;-75
2022/07/30 00:32:34;;;;;;;1.37;0.90;;;;;;;17.54;49.95;101081.86;1622044;86;21519;-74
2022/07/30 00:35:01;;;;;;;1.32;0.80;;;;;;;17.55;50.06;101080.10;1614517;87;20937;-74
2022/07/30 00:37:27;;;;;;;1.57;0.90;;;;;;;17.51;50.15;101073.28;1611172;87;20914;-74
2022/07/30 00:39:54;;;;;;;2.80;1.00;;;;;;;17.47;50.31;101063.39;1618480;87;20977;-74
2022/07/30 00:42:24;;;;;;;7.65;1.12;;;;;;;17.47;50.40;101059.92;1613531;87;21837;-74
2022/07/30 00:44:48;;;;;;;3.47;1.17;;;;;;;17.41;50.53;101049.23;1588155;88;20993;-74
2022/07/30 00:47:15;;;;;;;1.45;1.05;;;;;;;17.37;50.65;101052.88;1613318;88;20926;-74
2022/07/30 00:49:41;;;;;;;5.37;1.15;;;;;;;17.37;50.75;101055.94;1611020;87;20917;-74
2022/07/30 00:52:07;;;;;;;1.10;0.93;;;;;;;17.33;50.84;101056.97;1612787;88;21038;-74
2022/07/30 00:54:34;;;;;;;2.87;0.88;;;;;;;17.31;50.96;101058.33;1611101;88;21100;-74
2022/07/30 00:57:00;;;;;;;3.55;0.90;;;;;;;17.30;51.23;101061.84;1611515;87;21122;-74
2022/07/30 00:59:27;;;;;;;4.67;1.05;;;;;;;17.26;51.32;101052.41;1598968;89;21064;-74
2022/07/30 01:01:54;;;;;;;1.17;0.78;;;;;;;17.21;51.34;101059.56;1596524;88;21140;-74
2022/07/30 01:04:21;;;;;;;1.20;0.82;;;;;;;17.18;51.42;101055.30;1607775;89;22304;-74
2022/07/30 01:06:47;;;;;;;;;;;;;;;17.17;51.51;101052.30;1608019;88;21527;-74
2022/07/30 01:09:16;;;;;;;3.35;1.62;;;;;;;17.16;52.14;101061.50;1607721;87;20181;-74
2022/07/30 01:11:44;;;;;;;2.00;1.00;;;;;;;17.14;51.59;101057.66;1620094;87;21065;-74
2022/07/30 01:14:10;;;;;;;1.15;1.00;;;;;;;17.09;51.65;101062.20;1614106;87;21091;-74
2022/07/30 01:16:40;;;;;;;2.92;1.00;;;;;;;17.07;51.80;101063.16;1607652;87;21371;-74
2022/07/30 01:22:28;;;;;;;1.60;1.10;;;;;;;17.05;52.07;101061.05;1605716;87;21788;-74
2022/07/30 01:25:17;;;;;;;1.87;1.20;;;;;;;16.98;52.14;101057.80;1587516;90;21089;-74
2022/07/30 01:27:52;;;;;;;1.67;1.00;;;;;;;16.97;52.24;101055.25;1587954;88;21140;-74
2022/07/30 01:30:23;;;;;;;2.45;1.30;;;;;;;16.95;52.35;101064.45;1606692;87;21134;-74
2022/07/30 01:32:52;;;;;;;1.77;1.00;;;;;;;16.95;52.43;101063.14;1609115;88;20936;-73
2022/07/30 01:35:22;;;;;;;1.42;1.05;;;;;;;16.95;52.47;101063.59;1612136;88;22269;-73
2022/07/30 01:37:51;;;;;;;3.60;0.90;;;;;;;16.94;52.60;101065.35;1630748;87;20976;-73
2022/07/30 01:40:19;;;;;;;4.12;1.07;;;;;;;16.94;52.67;101069.27;1614553;87;20929;-74
2022/07/30 01:42:49;;;;;;;1.10;0.72;;;;;;;16.95;52.73;101060.98;1621484;87;21389;-74
2022/07/30 01:45:16;;;;;;;2.35;1.07;;;;;;;16.93;52.80;101055.81;1624778;87;20997;-73
2022/07/30 01:47:44;;;;;;;1.67;0.98;;;;;;;16.94;52.90;101056.66;1616482;87;20924;-74
2022/07/30 01:50:13;;;;;;;1.25;0.85;;;;;;;16.93;52.94;101052.34;1636420;87;21166;-74
2022/07/30 01:52:42;;;;;;;4.25;1.50;;;;;;;16.91;53.04;101050.23;1622534;87;20959;-74
2022/07/30 01:55:12;;;;;;;4.45;1.20;;;;;;;16.90;53.10;101046.77;1621510;87;21010;-74
2022/07/30 01:57:39;;;;;;;3.90;1.20;;;;;;;16.87;53.15;101041.20;1599103;88;20970;-74
2022/07/30 02:00:08;;;;;;;4.08;1.12;;;;;;;16.83;53.21;101036.99;1614611;88;21437;-74
2022/07/30 02:02:37;;;;;;;3.10;1.20;;;;;;;16.81;53.32;101030.11;1619155;87;20948;-74
2022/07/30 02:05:05;;;;;;;1.55;1.15;;;;;;;16.82;53.37;101035.73;1614723;88;20932;-74
2022/07/30 02:07:41;;;;;;;1.57;1.07;;;;;;;16.79;53.45;101030.63;1621803;87;20938;-74
2022/07/30 02:10:18;;;;;;;3.10;0.98;;;;;;;16.76;53.52;101034.19;1619547;87;21103;-74
2022/07/30 02:12:55;;;;;;;3.83;1.20;;;;;;;16.76;53.59;101038.56;1619709;87;21087;-74
2022/07/30 02:15:33;;;;;;;2.10;1.10;;;;;;;16.74;53.67;101036.00;1611636;87;21164;-74
2022/07/30 02:18:14;;;;;;;2.33;1.30;;;;;;;16.73;53.71;101034.75;1614618;88;20952;-74
2022/07/30 02:20:47;;;;;;;5.03;1.32;;;;;;;16.72;53.82;101040.87;1615363;87;20896;-74
2022/07/30 02:23:17;;;;;;;6.25;1.10;;;;;;;16.71;53.84;101029.58;1615257;87;20974;-74
2022/07/30 02:25:48;;;;;;;1.85;0.98;;;;;;;16.71;53.88;101022.20;1611663;89;20945;-74
2022/07/30 02:28:16;;;;;;;1.25;0.90;;;;;;;16.70;53.94;101020.05;1611619;89;21011;-74
2022/07/30 02:30:55;;;;;;;5.45;1.87;;;;;;;16.68;53.98;101010.55;1611895;87;21017;-74
2022/07/30 02:33:27;;;;;;;3.85;1.20;;;;;;;16.68;54.06;101014.47;1578741;89;20956;-75
2022/07/30 02:35:55;;;;;;;1.10;0.88;;;;;;;16.67;54.10;101014.92;1583940;90;20936;-75
2022/07/30 02:38:25;;;;;;;5.08;1.42;;;;;;;16.66;54.16;101017.59;1610042;88;20940;-74
2022/07/30 02:40:54;;;;;;;1.90;1.10;;;;;;;16.63;54.21;101021.16;1560272;90;20961;-74
2022/07/30 02:43:23;;;;;;;3.67;0.95;;;;;;;16.62;54.27;101026.44;1594737;88;20963;-74
2022/07/30 02:45:50;;;;;;;1.75;0.80;;;;;;;16.61;54.33;101026.03;1568347;90;20913;-74
2022/07/30 02:48:19;;;;;;;7.58;1.40;;;;;;;16.59;54.38;101020.02;1587154;88;21351;-74
2022/07/30 02:50:48;;;;;;;1.85;1.10;;;;;;;16.58;54.42;101026.98;1592372;88;20901;-74
2022/07/30 02:53:17;;;;;;;4.55;1.40;;;;;;;16.54;54.46;101023.63;1589721;88;20984;-73
2022/07/30 02:55:46;;;;;;;6.45;1.52;;;;;;;16.49;54.51;101017.70;1590560;88;21098;-73
2022/07/30 02:58:20;;;;;;;2.20;1.45;;;;;;;16.44;54.57;101010.48;1584703;88;21327;-74
2022/07/30 03:00:48;;;;;;;2.75;1.20;;;;;;;16.42;54.66;101005.77;1588565;88;21461;-74
2022/07/30 03:03:16;;;;;;;2.77;1.35;;;;;;;16.40;54.72;101012.80;1588244;88;20985;-74
2022/07/30 03:05:44;;;;;;;5.15;1.20;;;;;;;16.38;54.77;101010.69;1587342;90;21000;-74
2022/07/30 03:08:11;;;;;;;6.80;1.30;;;;;;;16.36;54.79;101020.78;1591681;88;20944;-74
2022/07/30 03:10:38;;;;;;;;;;;;;;;16.35;54.89;101015.16;1598840;88;20961;-74
2022/07/30 03:13:06;;;;;;;1.75;1.20;;;;;;;16.32;55.25;101010.89;1588118;88;20141;-74
2022/07/30 03:15:35;;;;;;;4.12;1.20;;;;;;;16.31;54.94;101010.49;1586560;88;21433;-74
2022/07/30 03:18:03;;;;;;;8.05;1.65;;;;;;;16.29;55.00;101000.56;1587072;90;20963;-74
2022/07/30 03:20:32;;;;;;;5.22;1.50;;;;;;;16.30;55.05;101001.41;1565155;90;21159;-74
2022/07/30 03:23:01;;;;;;;3.80;1.25;;;;;;;16.25;55.14;100999.41;1597058;88;21086;-74
2022/07/30 03:25:29;;;;;;;2.25;1.40;;;;;;;16.27;55.21;100993.69;1584265;88;21195;-74
2022/07/30 03:27:58;;;;;;;4.37;1.50;;;;;;;16.28;55.24;100994.08;1601962;89;21087;-74
2022/07/30 03:30:26;;;;;;;2.85;1.27;;;;;;;16.27;55.31;100987.16;1585992;89;21147;-74
2022/07/30 03:32:55;;;;;;;3.33;1.87;;;;;;;16.29;55.35;100986.20;1590222;88;21106;-73
2022/07/30 03:35:23;;;;;;;3.22;1.30;;;;;;;16.29;55.39;100982.74;1586189;89;21793;-73
2022/07/30 03:37:51;;;;;;;5.22;1.70;;;;;;;16.29;55.46;100978.83;1585595;88;21444;-74
2022/07/30 03:40:18;;;;;;;3.27;1.70;;;;;;;16.28;55.49;100979.73;1598844;89;20982;-74
2022/07/30 03:42:45;;;;;;;2.33;1.82;;;;;;;16.28;55.55;100976.67;1607299;88;20945;-74
2022/07/30 03:45:12;;;;;;;3.85;1.60;;;;;;;16.31;55.59;100973.10;1561012;90;20976;-75
2022/07/30 03:47:41;;;;;;;4.85;1.40;;;;;;;16.32;55.63;100975.66;1610036;88;20944;-75
2022/07/30 03:50:09;;;;;;;4.15;1.70;;;;;;;16.33;55.69;100960.86;1609899;87;20908;-75
2022/07/30 03:52:42;;;;;;;3.33;1.57;;;;;;;16.35;55.70;100959.05;1602727;86;351314;-75
2022/07/30 03:55:10;;;;;;;3.35;1.70;;;;;;;16.36;55.71;100958.14;1584441;90;20956;-75
2022/07/30 03:57:38;;;;;;;1.98;1.62;;;;;;;16.40;55.75;100956.68;1589879;88;21001;-75
2022/07/30 04:00:07;;;;;;;;;;;;;;;16.43;55.78;100959.64;1588171;90;20956;-75
2022/07/30 04:02:41;;;;;;;2.67;1.60;;;;;;;16.46;56.15;100953.01;1584769;88;20103;-75
2022/07/30 04:05:08;;;;;;;5.05;1.70;;;;;;;16.48;55.79;100955.11;1606830;89;20953;-75
2022/07/30 04:07:34;;;;;;;7.85;1.55;;;;;;;16.51;55.84;100953.25;1610018;88;20940;-75
2022/07/30 04:10:01;;;;;;;3.40;1.77;;;;;;;16.55;55.87;100948.31;1609821;87;20985;-75
2022/07/30 04:12:28;;;;;;;2.85;1.60;;;;;;;16.59;55.85;100953.44;1610345;87;21063;-75
2022/07/30 04:14:56;;;;;;;3.83;1.60;;;;;;;16.59;55.91;100950.82;1616308;87;21613;-75
2022/07/30 04:17:36;;;;;;;3.73;1.63;;;;;;;16.61;55.95;100952.47;1546865;87;5001234;-74
2022/07/30 04:20:11;;;;;;;2.08;1.30;;;;;;;16.61;55.96;100953.78;1585156;89;21822;-74
2022/07/30 04:22:39;;;;;;;5.35;1.50;;;;;;;16.63;55.99;100957.64;1618164;87;21876;-74
2022/07/30 04:25:07;;;;;;;2.47;1.50;;;;;;;16.66;56.04;100961.45;1610049;87;21091;-74
2022/07/30 04:27:35;;;;;;;3.00;1.67;;;;;;;16.70;56.07;100968.27;1610655;87;21139;-74
2022/07/30 04:30:02;;;;;;;3.45;1.57;;;;;;;16.73;56.06;100959.88;1612926;87;21112;-74
2022/07/30 04:32:28;;;;;;;;;;;;;;;16.76;56.09;100956.30;1610403;87;21093;-75
2022/07/30 04:34:55;;;;;;;3.05;1.47;;;;;;;16.79;56.23;100963.57;1614777;87;21944;-74
2022/07/30 04:37:26;;;;;;;4.95;2.00;;;;;;;16.82;56.08;100962.16;1614803;87;21153;-74
2022/07/30 04:39:56;;;;;;;6.40;1.52;;;;;;;16.87;56.14;100965.45;1589948;88;37733;-74
2022/07/30 04:42:25;;;;;;;5.42;1.85;;;;;;;16.91;56.13;100967.50;1606620;87;21093;-74
2022/07/30 04:44:52;;;;;;;3.70;1.25;;;;;;;16.92;56.14;100971.81;1613732;87;20978;-74
2022/07/30 04:47:19;;;;;;;2.58;1.32;;;;;;;16.95;56.21;100975.63;1617158;87;20960;-74
2022/07/30 04:49:46;;;;;;;2.77;1.50;;;;;;;17.00;56.22;100975.00;1603244;88;20959;-74
2022/07/30 04:52:14;;;;;;;7.05;1.60;;;;;;;17.05;56.28;100979.61;1609272;88;20903;-74
2022/07/30 04:54:52;;;;;;;1.62;1.32;;;;;;;17.12;56.29;100980.23;1567952;90;21455;-74
2022/07/30 04:57:19;;;;;;;1.67;1.30;;;;;;;17.17;56.29;100983.04;1596268;88;20982;-74
2022/07/30 04:59:46;;;;;;;4.10;1.70;;;;;;;17.20;56.28;100982.92;1618754;86;20978;-74
2022/07/30 05:02:15;;;;;;;1.95;1.50;;;;;;;17.24;56.36;100986.28;1611484;88;21628;-74
2022/07/30 05:04:42;;;;;;;4.30;1.40;;;;;;;17.30;56.33;100979.52;1606923;87;20981;-74
2022/07/30 05:07:12;;;;;;;8.00;1.82;;;;;;;17.38;56.35;100976.61;1611254;88;21454;-75
2022/07/30 05:09:39;;;;;;;3.05;1.70;;;;;;;17.46;56.30;100982.39;1619278;87;20952;-75
2022/07/30 05:12:06;;;;;;;4.00;1.52;;;;;;;17.52;56.35;100976.47;1619646;87;20954;-75
2022/07/30 05:14:33;;;;;;;5.05;1.40;;;;;;;17.61;56.33;100977.03;1610625;88;21363;-74
2022/07/30 05:17:00;;;;;;;1.55;1.35;;;;;;;17.70;56.31;100984.06;1608801;89;21365;-74
2022/07/30 05:19:26;;;;;;;6.20;1.45;;;;;;;17.76;56.35;100980.35;1618268;87;21160;-74
2022/07/30 05:21:53;;;;;;;4.37;1.40;;;;;;;17.84;56.29;100983.52;1621010;87;21153;-75
2022/07/30 05:24:19;;;;;;;1.80;1.67;;;;;;;17.93;56.31;100983.60;1617191;86;21108;-75
2022/07/30 05:26:45;;;;;;;3.87;1.65;;;;;;;18.04;56.30;100979.64;1611071;87;21149;-75
2022/07/30 05:29:12;;;;;;;3.20;1.67;;;;;;;18.17;56.28;100979.53;1619726;87;29109;-75
2022/07/30 05:31:39;;;;;;;6.55;1.52;;;;;;;18.30;56.26;100971.13;1617505;87;22004;-75
2022/07/30 05:34:06;;;;;;;4.87;1.72;;;;;;;18.43;56.22;100971.01;1618850;86;21383;-75
2022/07/30 05:36:33;;;;;;;2.05;1.45;;;;;;;18.53;56.18;100960.53;1611006;87;21088;-75
2022/07/30 05:39:00;;;;;;;2.58;1.50;;;;;;;18.65;56.14;100963.11;1631685;86;20946;-74
2022/07/30 05:41:27;;;;;;;5.08;1.70;;;;;;;18.74;56.09;100962.67;1625346;87;20922;-74
2022/07/30 05:43:54;;;;;;;2.45;1.67;;;;;;;18.79;56.01;100968.10;1619826;87;20997;-75
2022/07/30 05:46:20;;;;;;;4.22;1.60;;;;;;;18.83;55.97;100960.95;1615337;87;20918;-74
2022/07/30 05:48:47;;;;;;;2.10;1.52;;;;;;;18.84;55.91;100968.75;1625979;87;20942;-74
2022/07/30 05:51:14;;;;;;;4.20;1.47;;;;;;;18.83;55.86;100960.95;1615422;87;20973;-75
2022/07/30 05:53:40;;;;;;;5.95;1.45;;;;;;;18.87;55.86;100960.36;1620905;87;20989;-75
2022/07/30 05:56:06;;;;;;;6.00;1.57;;;;;;;18.86;55.79;100958.20;1609756;87;20923;-74
2022/07/30 05:58:35;;;;;;;6.55;1.60;;;;;;;18.89;55.76;100962.45;1622550;87;21003;-74
2022/07/30 06:01:01;;;;;;;4.97;1.65;;;;;;;18.90;55.71;100957.14;1621353;87;20942;-75
2022/07/30 06:03:28;;;;;;;1.47;1.37;;;;;;;18.94;55.68;100956.55;1619873;87;20993;-75
2022/07/30 06:05:54;;;;;;;3.65;1.70;;;;;;;18.95;55.63;100949.92;1622208;85;21016;-75
2022/07/30 06:08:21;;;;;;;1.87;1.50;;;;;;;18.96;55.56;100954.70;1616016;87;20994;-74
2022/07/30 06:10:47;;;;;;;5.75;1.77;;;;;;;18.94;55.56;100962.64;1622854;87;20883;-74
2022/07/30 06:13:13;;;;;;;3.52;1.55;;;;;;;18.99;55.55;100961.12;1621516;87;20975;-74
2022/07/30 06:15:40;;;;;;;3.55;1.30;;;;;;;19.02;55.49;100963.14;1625109;87;20974;-74
2022/07/30 06:18:06;;;;;;;8.20;1.85;;;;;;;19.07;55.45;100969.49;1627350;87;21454;-74
2022/07/30 06:20:36;;;;;;;2.25;1.50;;;;;;;19.10;55.36;100970.20;1617940;87;21079;-74
2022/07/30 06:23:02;;;;;;;5.50;2.33;;;;;;;19.12;55.36;100973.60;1633401;87;21152;-74
2022/07/30 06:25:29;;;;;;;2.15;1.55;;;;;;;19.17;55.33;100969.00;1628023;87;21119;-74
2022/07/30 06:27:55;;;;;;;5.55;1.30;;;;;;;19.21;55.29;100973.64;1627842;87;21161;-75
2022/07/30 06:30:22;;;;;;;2.72;1.15;;;;;;;19.24;55.24;100977.41;1625116;87;21058;-75
2022/07/30 06:32:48;;;;;;;5.75;1.47;;;;;;;19.26;55.17;100979.50;1623036;87;21084;-75
2022/07/30 06:35:15;;;;;;;2.67;1.35;;;;;;;19.27;55.13;100974.64;1628599;85;21087;-75
2022/07/30 06:37:42;;;;;;;3.40;1.37;;;;;;;19.32;55.11;100971.34;1634784;85;21508;-75
2022/07/30 06:40:10;;;;;;;8.95;1.75;;;;;;;19.39;55.12;100972.77;1634743;85;21470;-75
2022/07/30 06:42:37;;;;;;;8.15;1.60;;;;;;;19.47;55.07;100972.41;1642816;85;20952;-75
2022/07/30 06:45:04;;;;;;;4.25;1.30;;;;;;;19.54;55.02;100972.54;1641575;85;20983;-75
2022/07/30 06:47:30;;;;;;;3.62;1.30;;;;;;;19.62;54.97;100965.16;1642678;85;20938;-75
2022/07/30 06:49:57;;;;;;;6.75;1.20;;;;;;;19.70;54.89;100971.35;1648234;85;20968;-75
2022/07/30 06:52:24;;;;;;;3.83;1.37;;;;;;;19.77;54.81;100968.78;1642716;85;20999;-75
2022/07/30 06:54:50;;;;;;;8.18;1.85;;;;;;;19.85;54.75;100969.27;1639408;85;20932;-75
2022/07/30 06:57:17;;;;;;;2.95;1.20;;;;;;;19.91;54.62;100970.28;1637129;85;26336;-75
2022/07/30 06:59:43;;;;;;;2.40;1.42;;;;;;;19.99;54.61;100968.13;1637720;85;20921;-75
2022/07/30 07:02:10;;;;;;;5.70;1.55;;;;;;;20.07;54.54;100974.31;1640929;85;20901;-75
2022/07/30 07:04:36;;;;;;;2.58;1.40;;;;;;;20.14;54.39;100967.84;1640170;85;21470;-75
2022/07/30 07:07:03;;;;;;;;;;;;;;;20.13;54.40;100972.23;1639690;85;20966;-75
2022/07/30 07:09:30;;;;;;;7.58;1.57;;;;;;;20.21;54.04;100973.17;1634354;85;20115;-75
2022/07/30 07:11:56;;;;;;;2.02;1.47;;;;;;;20.26;54.24;100969.00;1636404;85;21554;-76
2022/07/30 07:14:23;;;;;;;5.35;1.60;;;;;;;20.35;54.23;100965.41;1636632;85;20962;-75
2022/07/30 07:16:49;;;;;;;4.28;1.72;;;;;;;20.43;54.12;100973.78;1642040;85;20938;-76
2022/07/30 07:19:15;;;;;;;2.47;1.57;;;;;;;20.55;54.11;100964.89;1637404;85;20928;-75
2022/07/30 07:21:42;;;;;;;5.80;2.00;;;;;;;20.70;54.03;100965.41;1637970;85;20991;-75
2022/07/30 07:24:08;;;;;;;2.20;1.82;;;;;;;20.83;53.97;100965.97;1638646;85;21474;-75
2022/07/30 07:26:35;;;;;;;2.87;1.35;;;;;;;20.97;53.80;100960.44;1637367;85;21463;-74
2022/07/30 07:29:01;;;;;;;1.65;1.55;;;;;;;21.07;53.71;100960.33;1635860;85;21359;-74
2022/07/30 07:31:28;;;;;;;4.72;1.95;;;;;;;21.14;53.62;100959.92;1644453;85;21626;-74
2022/07/30 07:33:55;;;;;;;2.67;1.50;;;;;;;21.23;53.49;100952.50;1643696;85;21531;-74
2022/07/30 07:36:22;;;;;;;8.68;1.55;;;;;;;21.32;53.37;100961.16;1608551;85;21056;-74
2022/07/30 07:38:49;;;;;;;6.03;1.30;;;;;;;21.38;53.31;100960.36;1614549;87;21016;-74
2022/07/30 07:41:15;;;;;;;;;;;;;;;21.47;53.26;100959.00;1629218;87;20947;-77
2022/07/30 07:43:42;;;;;;;1.62;1.40;;;;;;;21.61;52.96;100960.86;1617785;87;20115;-74
2022/07/30 07:46:09;;;;;;;3.35;1.12;;;;;;;21.72;53.02;100954.53;1616192;87;20928;-75
2022/07/30 07:48:35;;;;;;;5.37;1.60;;;;;;;21.80;53.02;100953.16;1610331;87;21433;-75
2022/07/30 07:51:01;;;;;;;3.58;1.00;;;;;;;21.97;52.93;100952.63;1615961;87;21915;-75
2022/07/30 07:53:28;;;;;;;1.40;1.30;;;;;;;22.14;52.84;100953.84;1612634;87;20999;-75
2022/07/30 07:55:55;;;;;;;1.98;1.30;;;;;;;22.29;52.56;100951.63;1612458;87;21117;-75
2022/07/30 07:58:21;;;;;;;2.20;1.40;;;;;;;22.36;52.42;100953.39;1608771;87;21057;-75
2022/07/30 08:00:47;;;;;;;6.85;0.85;;;;;;;22.50;52.33;100955.20;1608962;87;20983;-75
2022/07/30 08:03:17;;;;;;;1.67;0.82;;;;;;;22.69;52.28;100947.88;1609709;87;21602;-75
2022/07/30 08:05:43;;;;;;;2.92;1.15;;;;;;;22.85;52.07;100947.83;1608140;87;21038;-75
2022/07/30 08:08:10;;;;;;;4.60;0.98;;;;;;;23.03;51.92;100947.97;1607706;87;21547;-75
2022/07/30 08:10:36;;;;;;;3.98;1.12;;;;;;;23.14;51.76;100957.86;1613418;87;21175;-75
2022/07/30 08:13:04;;;;;;;4.25;1.35;;;;;;;23.13;51.60;100946.45;1612896;87;21569;-75
2022/07/30 08:15:30;;;;;;;2.72;1.57;;;;;;;23.23;51.42;100940.97;1618776;87;21097;-75
2022/07/30 08:17:57;;;;;;;2.65;1.30;;;;;;;23.35;51.33;100939.34;1611091;87;21035;-75
2022/07/30 08:20:23;;;;;;;;;;;;;;;23.43;51.16;100938.35;1623090;86;21023;-75
2022/07/30 08:22:50;;;;;;;3.00;1.25;;;;;;;23.51;50.87;100943.98;1620487;87;20221;-75
2022/07/30 08:25:18;;;;;;;;;;;;;;;23.68;51.15;100938.49;1613837;87;21572;-75
2022/07/30 08:27:45;;;;;;;5.62;1.30;;;;;;;23.92;50.86;100941.75;1614648;87;20226;-75
2022/07/30 08:30:12;;;;;;;5.40;1.40;;;;;;;24.12;50.68;100937.79;1617747;87;21191;-75
2022/07/30 08:32:38;;;;;;;5.37;1.50;;;;;;;24.19;50.42;100936.42;1611976;87;21087;-75
2022/07/30 08:35:07;;;;;;;3.90;2.10;;;;;;;24.12;50.15;100938.63;1624313;86;21552;-75
2022/07/30 08:37:33;;;;;;;2.87;0.90;;;;;;;24.11;50.14;100935.62;1625121;87;20965;-76
2022/07/30 08:40:00;;;;;;;3.05;0.80;;;;;;;24.24;50.12;100934.31;1615770;87;21016;-75
2022/07/30 08:42:27;;;;;;;3.50;1.20;;;;;;;24.36;49.92;100940.97;1618484;87;20946;-74
2022/07/30 08:44:53;;;;;;;5.50;1.02;;;;;;;24.34;49.37;100932.78;1611955;87;21083;-74
2022/07/30 08:47:25;;;;;;;3.50;1.20;;;;;;;24.34;49.37;100932.78;1612642;87;20989;-74
2022/07/30 08:49:52;;;;;;;4.35;0.72;;;;;;;24.38;49.42;100936.91;1611515;87;21021;-74
2022/07/30 08:52:19;;;;;;;1.30;0.88;;;;;;;24.41;49.26;100934.05;1611388;87;20942;-74
2022/07/30 08:54:46;;;;;;;3.25;0.98;;;;;;;24.46;49.06;100931.91;1614581;87;21097;-74
2022/07/30 08:57:13;;;;;;;4.25;1.00;;;;;;;24.50;48.92;100933.39;1609376;87;21406;-75
2022/07/30 08:59:39;;;;;;;4.10;0.93;;;;;;;24.53;48.83;100946.39;1613276;87;21463;-74
2022/07/30 09:02:06;;;;;;;3.20;1.10;;;;;;;24.51;48.49;100929.79;1619162;87;21449;-75
2022/07/30 09:04:33;;;;;;;3.52;1.10;;;;;;;24.48;48.44;100923.87;1611204;87;20948;-75
2022/07/30 09:07:00;;;;;;;;;;;;;;;24.41;48.35;100933.58;1613078;87;21517;-76
2022/07/30 09:09:27;;;;;;;3.70;1.30;;;;;;;24.40;48.23;100931.88;1586637;88;20148;-75
2022/07/30 09:11:53;;;;;;;2.25;1.05;;;;;;;24.40;48.27;100935.00;1611644;87;21482;-75
2022/07/30 09:14:20;;;;;;;3.33;0.95;;;;;;;24.46;48.14;100938.52;1614750;87;21474;-75
2022/07/30 09:16:46;;;;;;;2.70;1.30;;;;;;;24.48;47.71;100935.77;1611610;87;21459;-75
2022/07/30 09:19:17;;;;;;;2.15;0.90;;;;;;;24.44;47.72;100929.84;1611421;87;21454;-74
2022/07/30 09:21:59;;;;;;;3.58;0.95;;;;;;;24.46;47.27;100927.09;1617550;87;21442;-76
2022/07/30 09:24:26;;;;;;;4.20;1.10;;;;;;;24.43;47.35;100920.73;1606273;87;21471;-75
2022/07/30 09:27:00;;;;;;;3.60;1.27;;;;;;;24.45;47.31;100926.25;1611284;87;21483;-75
2022/07/30 09:29:29;;;;;;;139.30;5.97;;;;;;;24.52;47.26;100923.55;1611690;87;21588;-75
2022/07/30 09:31:58;;;;;;;3.52;1.20;;;;;;;24.58;47.20;100927.56;1611614;87;21410;-76
2022/07/30 09:34:29;;;;;;;6.72;1.20;;;;;;;24.65;46.99;100919.58;1606756;88;20998;-75
2022/07/30 09:37:03;;;;;;;5.10;0.98;;;;;;;24.64;46.85;100917.89;1638236;85;20974;-75
2022/07/30 09:39:39;;;;;;;1.95;0.90;;;;;;;24.66;46.72;100916.83;1642792;85;21459;-75
2022/07/30 09:42:23;;;;;;;2.75;0.93;;;;;;;24.70;46.72;100920.95;1643872;85;21421;-75
2022/07/30 09:44:50;;;;;;;5.60;1.20;;;;;;;24.76;46.63;100914.38;1629084;87;21419;-75
2022/07/30 09:47:41;;;;;;;1.80;0.90;;;;;;;24.78;46.39;100916.45;1641661;86;20898;-75
2022/07/30 09:50:11;;;;;;;1.55;0.82;;;;;;;24.80;46.30;100917.19;1639389;85;21429;-75
2022/07/30 09:52:42;;;;;;;5.78;0.95;;;;;;;24.83;45.97;100909.52;1642570;85;20973;-75
2022/07/30 09:55:09;;;;;;;33.35;3.15;;;;;;;24.81;46.04;100904.33;1641628;86;20928;-75
2022/07/30 09:57:56;;;;;;;2.90;0.95;;;;;;;24.83;45.99;100907.71;1645403;85;21058;-75
2022/07/30 10:00:25;;;;;;;4.75;1.00;;;;;;;24.85;45.84;100895.22;1644420;85;20990;-75
2022/07/30 10:02:53;;;;;;;1.37;0.80;;;;;;;24.97;45.51;100918.16;1640875;85;20972;-76
2022/07/30 10:05:20;;;;;;;4.15;0.98;;;;;;;24.97;45.51;100918.16;1643021;85;20983;-75
2022/07/30 10:08:00;;;;;;;3.47;0.62;;;;;;;25.02;45.49;100906.77;1614379;85;21056;-73
2022/07/30 10:10:30;;;;;;;2.00;0.93;;;;;;;25.11;45.34;100906.59;1645984;85;20960;-73
2022/07/30 10:13:02;;;;;;;6.30;0.75;;;;;;;25.14;44.93;100909.49;1619797;86;20964;-73
2022/07/30 10:15:35;;;;;;;5.30;0.90;;;;;;;25.10;44.95;100900.93;1597649;88;20969;-72
2022/07/30 10:18:04;;;;;;;3.47;0.82;;;;;;;25.00;44.75;100882.22;1585803;88;20954;-73
2022/07/30 10:20:31;;;;;;;2.72;0.90;;;;;;;25.01;44.64;100897.14;1619596;87;21010;-73
2022/07/30 10:22:58;;;;;;;3.02;1.40;;;;;;;25.06;44.63;100902.95;1612505;87;20979;-74
2022/07/30 10:25:25;;;;;;;;;;;;;;;24.99;44.63;100873.91;1617287;86;20953;-73
2022/07/30 10:27:52;;;;;;;4.78;1.00;;;;;;;25.12;44.13;100904.31;1612005;86;20117;-73
2022/07/30 10:30:19;;;;;;;3.90;0.75;;;;;;;24.99;44.28;100886.30;1619061;87;20976;-73
2022/07/30 10:32:46;;;;;;;1.72;0.72;;;;;;;25.06;44.16;100908.25;1640449;85;20926;-73
2022/07/30 10:35:14;;;;;;;5.05;1.00;;;;;;;25.10;44.09;100914.64;1641913;86;21030;-73
2022/07/30 10:37:46;;;;;;;;;;;;;;;25.05;43.79;100901.27;1627413;87;21563;-73
2022/07/30 10:40:23;;;;;;;3.17;0.90;;;;;;;25.02;43.68;100901.96;1616103;87;20134;-73
2022/07/30 10:43:33;;;;;;;5.65;0.70;;;;;;;25.02;43.68;100901.96;1618118;87;21863;-73
2022/07/30 10:46:45;;;;;;;4.40;0.80;;;;;;;25.02;43.67;100908.09;1618803;87;21006;-73
2022/07/30 10:49:15;;;;;;;7.12;0.82;;;;;;;24.94;43.35;100905.15;1615445;86;20922;-74
2022/07/30 10:51:51;;;;;;;4.15;1.55;;;;;;;24.92;43.23;100903.09;1619683;87;20910;-72
2022/07/30 10:54:40;;;;;;;13.28;0.98;;;;;;;24.88;43.01;100909.55;1623303;87;20970;-73
2022/07/30 10:57:16;;;;;;;2.08;0.80;;;;;;;24.79;42.86;100905.39;1614625;87;20978;-73
2022/07/30 11:00:00;;;;;;;4.08;0.85;;;;;;;24.72;42.80;100903.66;1623460;86;20964;-73
2022/07/30 11:02:30;;;;;;;2.12;0.78;;;;;;;24.58;42.42;100878.66;1618194;87;20938;-73
2022/07/30 11:05:21;;;;;;;4.50;0.82;;;;;;;24.58;42.42;100878.66;1615630;87;21013;-73
2022/07/30 11:07:48;;;;;;;1.67;1.02;;;;;;;24.70;42.35;100895.83;1628439;87;20940;-72
2022/07/30 11:10:37;;;;;;;6.05;0.70;;;;;;;24.70;42.35;100895.83;1621575;87;21073;-73
2022/07/30 11:13:06;;;;;;;9.60;0.80;;;;;;;24.72;42.00;100901.86;1617455;87;21000;-73
2022/07/30 11:15:57;;;;;;;0.68;0.60;;;;;;;24.71;41.93;100897.52;1619449;87;21048;-73
2022/07/30 11:18:23;;;;;;;6.25;1.00;;;;;;;24.73;42.00;100900.90;1610141;87;21013;-73
2022/07/30 11:21:20;;;;;;;3.70;0.70;;;;;;;24.78;41.80;100908.98;1614886;87;22084;-73
2022/07/30 11:23:47;;;;;;;6.90;1.00;;;;;;;24.75;41.14;100909.58;1556400;90;21033;-72
2022/07/30 11:26:47;;;;;;;3.47;0.70;;;;;;;24.71;41.56;100899.31;1560784;90;21059;-72
2022/07/30 11:29:39;;;;;;;4.75;0.78;;;;;;;24.65;41.17;100866.69;1561903;90;21043;-73
2022/07/30 11:32:31;;;;;;;5.65;0.60;;;;;;;24.65;41.17;100866.69;1558864;90;20938;-73
2022/07/30 11:35:31;;;;;;;3.05;0.62;;;;;;;24.80;41.06;100880.63;1564582;90;21008;-73
2022/07/30 11:38:20;;;;;;;1.87;1.05;;;;;;;24.86;40.82;100888.13;1612366;88;21039;-73
2022/07/30 11:40:55;;;;;;;4.92;1.15;;;;;;;24.86;40.82;100888.13;1600133;88;21071;-72